AirNav   Everest Fuels
 
 1241 users online  

12J Brewton Municipal Airport
Brewton, Alabama, USA

GOING TO BREWTON?


FAA INFORMATION EFFECTIVE 19 MAY 2022

Location

FAA Identifier: 12J
Lat/Long: 31-03-02.5610N 087-04-02.1600W
31-03.042683N 087-04.036000W
31.0507114,-87.0672667
(estimated)
Elevation: 98.8 ft. / 30.1 m (surveyed)
Variation: 01W (2000)
From city: 3 miles S of BREWTON, AL
Time zone: UTC -5 (UTC -6 during Standard Time)
Zip code: 36426

Airport Operations

Airport use: Open to the public
Activation date: 06/1944
Control tower: no
ARTCC: JACKSONVILLE CENTER
FSS: ANNISTON FLIGHT SERVICE STATION
NOTAMs facility: ANB (NOTAM-D service available)
Attendance: MON-FRI 0730-1700, ALL SAT 0830-1700
AFT HRS CALL 251-867-9997.
Wind indicator: lighted
Segmented circle: no
Lights: ACTVT PAPI RWY 12 & 30; MIRL RWY 12/30 - CTAF.
Beacon: white-green (lighted land airport)
Operates sunset to sunrise.

Airport Communications

CTAF/UNICOM: 122.725
WX AWOS-3PT: 119.325 (251-809-2987)
PENSACOLA APPROACH: 127.35
PENSACOLA DEPARTURE: 127.35
WX ASOS at NSE (20 nm S): PHONE 850-623-7241

Nearby radio navigation aids

VOR radial/distance  VOR name  Freq  Var
CEWr301/24.1CRESTVIEW VORTAC115.9003E
MVCr145/28.6MONROEVILLE VORTAC116.8004E
NUNr021/(37.4)SAUFLEY VOR108.8001E

 
NDB name  Hdg/Dist  Freq  Var  ID
PICKENS011/37.332602WPKZ .--. -.- --..
JUDD248/37.926402WJUY .--- ..- -.--

Airport Services

Fuel available: 100LL JET-A+
Parking: hangars and tiedowns
Airframe service: MAJOR
Powerplant service: MAJOR
Bottled oxygen: NONE
Bulk oxygen: NONE

Runway Information

Runway 6/24

Dimensions: 5136 x 150 ft. / 1565 x 46 m
Surface: asphalt, in fair condition
Weight bearing capacity: 
Single wheel: 40.0
Double wheel: 60.0
Runway edge markings: MARKINGS FADED, CNTLN OBSCURED.
RUNWAY 6  RUNWAY 24
Latitude: 31-02.998458N31-03.384532N
Longitude: 087-04.547052W087-03.671163W
Elevation: 80.9 ft.83.3 ft.
Traffic pattern: leftleft
Runway heading: 064 magnetic, 063 true244 magnetic, 243 true
Markings: nonprecision, in fair conditionnonprecision, in fair condition
Touchdown point: yes, no lightsyes, no lights
Obstructions: 56 ft. tree, 511 ft. from runway, 286 ft. left of centerline, 5:1 slope to clear69 ft. trees, 621 ft. from runway, 287 ft. left of centerline, 6:1 slope to clear

Runway 12/30

Dimensions: 5001 x 150 ft. / 1524 x 46 m
Surface: asphalt, in poor condition
SFC EXPERIENCING EXTSV CRACKING.
Weight bearing capacity: 
Single wheel: 40.0
Double wheel: 60.0
Runway edge lights: medium intensity
Runway edge markings: MARKINGS FADED, CNTLN OBSCURED.
FIXED DISTANCE MARKER 500 FT FM RWY END.
RUNWAY 12  RUNWAY 30
Latitude: 31-03.095260N31-02.684430N
Longitude: 087-04.376370W087-03.545472W
Elevation: 82.1 ft.98.8 ft.
Traffic pattern: leftleft
Runway heading: 121 magnetic, 120 true301 magnetic, 300 true
Markings: nonprecision, in fair conditionnonprecision, in fair condition
Visual slope indicator: 2-light PAPI on left (3.25 degrees glide path)
UNUSBL BYD 6 DEG LEFT OF CNTRLN.
2-light PAPI on left (3.50 degrees glide path)
Touchdown point: yes, no lightsyes, no lights
Obstructions: 90 ft. trees, 1980 ft. from runway, 269 ft. left of centerline, 19:1 slope to clear96 ft. tree, 2009 ft. from runway, 356 ft. left of centerline, 18:1 slope to clear
BRUSH LCTD 79 FT FM RWY END, 91 FT LEFT OF CNTLN.

Airport Ownership and Management from official FAA records

Ownership: Publicly-owned
Owner: CITY OF BREWTON
PO BOX 368
BREWTON, AL 36427
Phone 251-867-3281
Manager: EARL LAMBERT
111 DOGWOOD LANE W.
BREWTON, AL 36426
Phone 251-363-1551

Airport Operational Statistics

Aircraft based on the field: 22
Single engine airplanes: 16
Multi engine airplanes: 1
Helicopters: 3
Gliders airplanes: 2
    
Aircraft operations: avg 453/day *
91% military
4% transient general aviation
4% local general aviation
1% air taxi
* for 12-month period ending 30 June 2020

Additional Remarks

MIL TRNG ACFT MONTR UNICOM AND YIELD TO ALL CIV OPNS.
USN PILOT TRNG FM WHITING FLD.
MIL ACFT RQR PRIOR CDN WITH NAS WHITING FLD, DSN 868-7654, C850-623-7645.
FOR CD CTC PENSACOLA APCH AT 850-266-6884 OR 850-266-6885.

Instrument Procedures

NOTE: All procedures below are presented as PDF files. If you need a reader for these files, you should download the free Adobe Reader.

NOT FOR NAVIGATION. Please procure official charts for flight.
FAA instrument procedures published for use from 19 May 2022 at 0901Z to 16 June 2022 at 0900Z.

 
IAPs - Instrument Approach Procedures
RNAV (GPS) RWY 06   download (186KB)
RNAV (GPS) RWY 12   download (253KB)
RNAV (GPS) RWY 24   download (190KB)
RNAV (GPS) RWY 30   download (256KB)
VOR/DME RWY 30   download (231KB)
NOTE: Special Take-Off Minimums/Departure Procedures apply   download (189KB)

Other nearby airports with instrument procedures:

0R1 - Atmore Municipal Airport (20 nm W)
KNSE - Whiting Field Naval Air Station North (20 nm S)
KNDZ - Whiting Field Naval Air Station South (21 nm S)
KGZH - Evergreen Regional Airport/Middleton Field (22 nm N)
2R4 - Peter Prince Field Airport (25 nm S)
 
Loc | Ops | Rwys | IFR | FBO | Links
Com | Nav | Svcs | Stats | Notes
Area around 12J (Brewton Municipal Airport)
 
Road maps at: MapQuest Bing Google
 
Aerial photo
WARNING: Photo may not be current or correct
Aerial photo of 12J (Brewton Municipal Airport)
Photo by Ryan Hegerty, 11-Jan-2004

Do you have a better or more recent aerial photo of Brewton Municipal Airport that you would like to share? If so, please send us your photo.

 
Sectional chart

 
Airport distance calculator
Flying to Brewton Municipal Airport? Find the distance to fly.

From to 12J

Sunrise and sunset
Times for 22-May-2022
 Local
(UTC-5)
 Zulu
(UTC)
Morning civil twilight05:2310:23
Sunrise05:5010:50
Sunset19:4000:40
Evening civil twilight20:0701:07

Current date and time
Zulu (UTC)  22-May-2022 18:05:59
Local (UTC-5)  22-May-2022 13:05:59
 
METAR
KNDZ 
21nm S 
221638Z AUTO 32004KT 3SM RA BR SCT070 OVC090 21/20 A3021 RMK AO2 TSB16E32 T02060200 PNO $
KGZH 
22nm N 
221753Z AUTO 20012KT 10SM -RA FEW080 SCT100 22/19 A3017 RMK AO2 PK WND 17031/1704 LTG DSNT N RAB51 SLP214 P0000 60000 T02220189 10294 20206 50003
KCEW 
33nm SE 
221753Z AUTO 01003KT 10SM CLR 23/21 A3019 RMK AO2 RAE37 PRESFR SLP220 P0000 60052 T02280206 10278 20211 50001 TSNO
KPNS 
35nm S 
221753Z 06007KT 10SM CLR A3014 RMK AO2 RAE16 SLPNO P0000 60067 10283 20217 58010 $
K79J 
38nm NE 
221756Z AUTO VRB04KT 10SM -RA FEW055 OVC100 23/19 A3019 RMK AO2 SLP219 P0009 60057 T02280194 10311 20222 50005
KEGI 
38nm SE 
221756Z AUTO 36009KT 10SM -RA SCT005 BKN024 22/21 A3016 RMK AO2 DZE16RAB53 CIG 022V200 SLP213 P0000 60060 T02220206 10260 20210 58010 $
K0J4 
39nm E 
221747Z AUTO 00000KT 9SM -RA SCT007 SCT060 OVC100 22/19 A3023 RMK AO2 TSE01 P0002 T02220194
TAF
KNSE 
20nm S 
2207/2307 VRB06KT 9999 FEW030 SCT050 BKN250 QNH3002INS BECMG 2213/2215 17010KT 9999 VCTS BKN020CB QNH2997INS TEMPO 2216/2222 VRB25G30KT 3200 +TSRA OVC010CB BECMG 2222/2300 16010KT 9999 VCTS BKN020CB QNH2994INS TEMPO 2301/2307 VRB20G30KT 3200 +TSRA OVC010CB T19/2118Z T21/2206Z FN00232
NOTAMs
Click for the latest NOTAMs
NOTAMs are issued by the DoD/FAA and will open in a separate window not controlled by AirNav.

 

 
 

FBO, Fuel Providers, and Aircraft Ground Support

  
 Business Name 
 
 Contact 
 
 Services / Description 
 
Fuel Prices
 
Comments
  
Aviation Specialists LLC 251-867-9997
no information available

If you are affiliated with Aviation Specialists LLC and would like to show here your services, contact info, web link, logo, and more, click here
100LL Jet A
FS $6.10 $6.00 
 Updated 19-May-2022
 
   1 read write
FS=Full service
Update Fuel Prices
 

Would you like to see your business listed on this page?

 If your business provides an interesting product or service to pilots, flight crews, aircraft, or users of the Brewton Municipal Airport, you should consider listing it here.  To start the listing process, click on the button below
 
Add a business
 

Other Pages about Brewton Municipal Airport

www.brewtonchamber.com/Resources.htm#airport
 
Update a link
 
Copyright © AirNav, LLC. All rights reserved. Privacy Policy  Contact